sensor_id;sensor_type;location;lat;lon;timestamp;pressure;altitude;pressure_sealevel;temperature;humidity
79645;BME280;69117;47.148;18.954;2023-07-29T00:02:43;100144.81;;;20.09;100.00
79645;BME280;69117;47.148;18.954;2023-07-29T00:05:47;100145.22;;;20.13;100.00
79645;BME280;69117;47.148;18.954;2023-07-29T00:08:49;100148.72;;;20.13;100.00
79645;BME280;69117;47.148;18.954;2023-07-29T00:11:50;100137.75;;;20.15;100.00
79645;BME280;69117;47.148;18.954;2023-07-29T00:14:52;100146.47;;;20.10;100.00
79645;BME280;69117;47.148;18.954;2023-07-29T00:17:53;100140.47;;;20.08;100.00
79645;BME280;69117;47.148;18.954;2023-07-29T00:20:55;100147.91;;;20.13;100.00
79645;BME280;69117;47.148;18.954;2023-07-29T00:23:57;100148.13;;;20.05;100.00
79645;BME280;69117;47.148;18.954;2023-07-29T00:26:59;100149.63;;;19.94;100.00
79645;BME280;69117;47.148;18.954;2023-07-29T00:30:00;100147.97;;;19.86;100.00
79645;BME280;69117;47.148;18.954;2023-07-29T00:33:02;100155.22;;;19.79;100.00
79645;BME280;69117;47.148;18.954;2023-07-29T00:36:04;100141.38;;;19.76;100.00
79645;BME280;69117;47.148;18.954;2023-07-29T00:39:06;100148.59;;;19.75;100.00
79645;BME280;69117;47.148;18.954;2023-07-29T00:42:08;100146.16;;;19.74;100.00
79645;BME280;69117;47.148;18.954;2023-07-29T00:45:10;100150.47;;;19.75;100.00
79645;BME280;69117;47.148;18.954;2023-07-29T00:48:12;100142.44;;;19.75;100.00
79645;BME280;69117;47.148;18.954;2023-07-29T00:51:14;100142.03;;;19.71;100.00
79645;BME280;69117;47.148;18.954;2023-07-29T00:54:15;100148.00;;;19.80;100.00
79645;BME280;69117;47.148;18.954;2023-07-29T00:57:19;100142.84;;;19.85;100.00
79645;BME280;69117;47.148;18.954;2023-07-29T01:00:21;100135.22;;;19.82;100.00
79645;BME280;69117;47.148;18.954;2023-07-29T01:03:23;100143.44;;;19.87;100.00
79645;BME280;69117;47.148;18.954;2023-07-29T01:06:31;100136.44;;;19.73;100.00
79645;BME280;69117;47.148;18.954;2023-07-29T01:09:57;100125.09;;;19.57;100.00
79645;BME280;69117;47.148;18.954;2023-07-29T01:16:53;100139.56;;;19.50;100.00
79645;BME280;69117;47.148;18.954;2023-07-29T01:20:09;100144.31;;;19.41;100.00
79645;BME280;69117;47.148;18.954;2023-07-29T01:23:13;100146.59;;;19.37;100.00
79645;BME280;69117;47.148;18.954;2023-07-29T01:26:14;100139.78;;;19.28;100.00
79645;BME280;69117;47.148;18.954;2023-07-29T01:29:16;100141.03;;;19.26;100.00
79645;BME280;69117;47.148;18.954;2023-07-29T01:32:26;100135.03;;;19.17;100.00
79645;BME280;69117;47.148;18.954;2023-07-29T01:38:41;100135.88;;;18.97;100.00
79645;BME280;69117;47.148;18.954;2023-07-29T01:41:45;100135.44;;;18.94;100.00
79645;BME280;69117;47.148;18.954;2023-07-29T01:44:47;100137.50;;;18.92;100.00
79645;BME280;69117;47.148;18.954;2023-07-29T01:47:49;100136.88;;;18.83;100.00
79645;BME280;69117;47.148;18.954;2023-07-29T01:50:50;100135.97;;;18.69;100.00
79645;BME280;69117;47.148;18.954;2023-07-29T01:53:52;100133.28;;;18.56;100.00
79645;BME280;69117;47.148;18.954;2023-07-29T01:56:54;100131.03;;;18.60;100.00
79645;BME280;69117;47.148;18.954;2023-07-29T01:59:55;100125.91;;;18.58;100.00
79645;BME280;69117;47.148;18.954;2023-07-29T02:02:57;100125.84;;;18.51;100.00
79645;BME280;69117;47.148;18.954;2023-07-29T02:05:59;100131.00;;;18.53;100.00
79645;BME280;69117;47.148;18.954;2023-07-29T02:09:00;100126.25;;;18.48;100.00
79645;BME280;69117;47.148;18.954;2023-07-29T02:12:02;100120.72;;;18.50;100.00
79645;BME280;69117;47.148;18.954;2023-07-29T02:15:04;100108.34;;;18.42;100.00
79645;BME280;69117;47.148;18.954;2023-07-29T02:18:06;100122.97;;;18.46;100.00
79645;BME280;69117;47.148;18.954;2023-07-29T02:21:08;100120.28;;;18.40;100.00
79645;BME280;69117;47.148;18.954;2023-07-29T02:24:10;100133.25;;;18.43;100.00
79645;BME280;69117;47.148;18.954;2023-07-29T02:27:12;100133.25;;;18.43;100.00
79645;BME280;69117;47.148;18.954;2023-07-29T02:30:13;100133.66;;;18.40;100.00
79645;BME280;69117;47.148;18.954;2023-07-29T02:33:15;100130.59;;;18.43;100.00
79645;BME280;69117;47.148;18.954;2023-07-29T02:36:17;100137.97;;;18.41;100.00
79645;BME280;69117;47.148;18.954;2023-07-29T02:39:19;100139.44;;;18.50;100.00
79645;BME280;69117;47.148;18.954;2023-07-29T02:42:21;100129.78;;;18.49;100.00
79645;BME280;69117;47.148;18.954;2023-07-29T02:45:22;100131.25;;;18.58;100.00
79645;BME280;69117;47.148;18.954;2023-07-29T02:48:25;100129.78;;;18.49;100.00
79645;BME280;69117;47.148;18.954;2023-07-29T02:51:27;100138.41;;;18.44;100.00
79645;BME280;69117;47.148;18.954;2023-07-29T02:54:28;100137.97;;;18.34;100.00
79645;BME280;69117;47.148;18.954;2023-07-29T02:57:30;100145.53;;;18.30;100.00
79645;BME280;69117;47.148;18.954;2023-07-29T03:00:32;100152.31;;;18.26;100.00
79645;BME280;69117;47.148;18.954;2023-07-29T03:03:34;100156.44;;;18.22;100.00
79645;BME280;69117;47.148;18.954;2023-07-29T03:06:36;100153.34;;;18.25;100.00
79645;BME280;69117;47.148;18.954;2023-07-29T03:09:38;100154.41;;;18.31;100.00
79645;BME280;69117;47.148;18.954;2023-07-29T03:12:40;100157.28;;;18.29;100.00
79645;BME280;69117;47.148;18.954;2023-07-29T03:15:41;100153.53;;;18.24;100.00
79645;BME280;69117;47.148;18.954;2023-07-29T03:18:44;100160.16;;;18.28;100.00
79645;BME280;69117;47.148;18.954;2023-07-29T03:21:45;100153.13;;;18.20;100.00
79645;BME280;69117;47.148;18.954;2023-07-29T03:24:47;100156.63;;;18.21;100.00
79645;BME280;69117;47.148;18.954;2023-07-29T03:27:49;100164.44;;;18.22;100.00
79645;BME280;69117;47.148;18.954;2023-07-29T03:34:01;100168.22;;;18.41;100.00
79645;BME280;69117;47.148;18.954;2023-07-29T03:37:03;100170.53;;;18.51;100.00
79645;BME280;69117;47.148;18.954;2023-07-29T03:40:05;100176.09;;;18.56;100.00
79645;BME280;69117;47.148;18.954;2023-07-29T03:43:08;100177.75;;;18.57;100.00
79645;BME280;69117;47.148;18.954;2023-07-29T03:46:09;100172.84;;;18.67;100.00
79645;BME280;69117;47.148;18.954;2023-07-29T03:49:13;100163.38;;;18.65;100.00
79645;BME280;69117;47.148;18.954;2023-07-29T03:52:14;100164.19;;;18.72;100.00
79645;BME280;69117;47.148;18.954;2023-07-29T03:55:16;100170.03;;;18.82;100.00
79645;BME280;69117;47.148;18.954;2023-07-29T03:58:18;100165.09;;;18.92;100.00
79645;BME280;69117;47.148;18.954;2023-07-29T04:01:19;100167.59;;;19.07;100.00
79645;BME280;69117;47.148;18.954;2023-07-29T04:04:21;100175.63;;;19.27;100.00
79645;BME280;69117;47.148;18.954;2023-07-29T04:07:23;100172.13;;;19.53;100.00
79645;BME280;69117;47.148;18.954;2023-07-29T04:10:25;100176.91;;;19.64;100.00
79645;BME280;69117;47.148;18.954;2023-07-29T04:13:26;100180.56;;;19.83;100.00
79645;BME280;69117;47.148;18.954;2023-07-29T04:16:28;100179.53;;;19.91;100.00
79645;BME280;69117;47.148;18.954;2023-07-29T04:19:30;100183.47;;;19.88;100.00
79645;BME280;69117;47.148;18.954;2023-07-29T04:22:32;100184.09;;;19.77;100.00
79645;BME280;69117;47.148;18.954;2023-07-29T04:25:33;100175.22;;;19.57;100.00
79645;BME280;69117;47.148;18.954;2023-07-29T04:28:35;100178.31;;;19.54;100.00
79645;BME280;69117;47.148;18.954;2023-07-29T04:31:36;100178.53;;;19.45;100.00
79645;BME280;69117;47.148;18.954;2023-07-29T04:34:38;100190.06;;;19.39;100.00
79645;BME280;69117;47.148;18.954;2023-07-29T04:37:40;100183.06;;;19.32;100.00
79645;BME280;69117;47.148;18.954;2023-07-29T04:40:42;100181.84;;;19.28;100.00
79645;BME280;69117;47.148;18.954;2023-07-29T04:43:43;100192.13;;;19.31;100.00
79645;BME280;69117;47.148;18.954;2023-07-29T04:46:45;100187.78;;;19.30;100.00
79645;BME280;69117;47.148;18.954;2023-07-29T04:49:47;100191.50;;;19.42;100.00
79645;BME280;69117;47.148;18.954;2023-07-29T04:52:49;100195.03;;;19.69;100.00
79645;BME280;69117;47.148;18.954;2023-07-29T04:55:50;100192.50;;;20.01;100.00
79645;BME280;69117;47.148;18.954;2023-07-29T04:58:52;100193.06;;;20.23;100.00
79645;BME280;69117;47.148;18.954;2023-07-29T05:01:54;100190.28;;;20.49;100.00
79645;BME280;69117;47.148;18.954;2023-07-29T05:04:56;100192.84;;;20.76;100.00
79645;BME280;69117;47.148;18.954;2023-07-29T05:07:57;100198.47;;;21.06;100.00
79645;BME280;69117;47.148;18.954;2023-07-29T05:10:59;100196.44;;;21.26;100.00
79645;BME280;69117;47.148;18.954;2023-07-29T05:14:01;100192.31;;;21.56;100.00
79645;BME280;69117;47.148;18.954;2023-07-29T05:17:05;100201.03;;;21.94;100.00
79645;BME280;69117;47.148;18.954;2023-07-29T05:20:07;100204.63;;;22.07;100.00
79645;BME280;69117;47.148;18.954;2023-07-29T05:23:09;100209.94;;;21.95;100.00
79645;BME280;69117;47.148;18.954;2023-07-29T05:26:11;100207.75;;;21.85;100.00
79645;BME280;69117;47.148;18.954;2023-07-29T05:29:12;100217.25;;;21.88;100.00
79645;BME280;69117;47.148;18.954;2023-07-29T05:32:14;100212.81;;;22.18;100.00
79645;BME280;69117;47.148;18.954;2023-07-29T05:35:16;100216.38;;;22.49;100.00
79645;BME280;69117;47.148;18.954;2023-07-29T05:38:17;100210.78;;;22.81;100.00
79645;BME280;69117;47.148;18.954;2023-07-29T05:41:19;100217.91;;;23.05;100.00
79645;BME280;69117;47.148;18.954;2023-07-29T05:44:21;100225.75;;;22.95;100.00
79645;BME280;69117;47.148;18.954;2023-07-29T05:47:23;100225.28;;;22.98;100.00
79645;BME280;69117;47.148;18.954;2023-07-29T05:50:25;100231.53;;;23.11;100.00
79645;BME280;69117;47.148;18.954;2023-07-29T05:53:26;100238.31;;;23.43;100.00
79645;BME280;69117;47.148;18.954;2023-07-29T05:56:28;100229.69;;;23.76;100.00
79645;BME280;69117;47.148;18.954;2023-07-29T05:59:29;100245.06;;;23.99;100.00
79645;BME280;69117;47.148;18.954;2023-07-29T06:02:31;100249.63;;;23.87;100.00
79645;BME280;69117;47.148;18.954;2023-07-29T06:05:33;100252.50;;;23.50;100.00
79645;BME280;69117;47.148;18.954;2023-07-29T06:08:35;100251.44;;;23.40;100.00
79645;BME280;69117;47.148;18.954;2023-07-29T06:11:36;100250.91;;;23.73;100.00
79645;BME280;69117;47.148;18.954;2023-07-29T06:14:38;100262.06;;;23.76;100.00
79645;BME280;69117;47.148;18.954;2023-07-29T06:17:40;100265.13;;;23.80;100.00
79645;BME280;69117;47.148;18.954;2023-07-29T06:20:42;100266.19;;;23.79;100.00
79645;BME280;69117;47.148;18.954;2023-07-29T06:23:44;100272.03;;;23.76;100.00
79645;BME280;69117;47.148;18.954;2023-07-29T06:26:45;100264.50;;;23.66;100.00
79645;BME280;69117;47.148;18.954;2023-07-29T06:29:47;100267.47;;;23.76;100.00
79645;BME280;69117;47.148;18.954;2023-07-29T06:32:49;100264.53;;;23.90;100.00
79645;BME280;69117;47.148;18.954;2023-07-29T06:35:50;100275.19;;;24.08;100.00
79645;BME280;69117;47.148;18.954;2023-07-29T06:38:52;100272.03;;;24.11;100.00
79645;BME280;69117;47.148;18.954;2023-07-29T06:41:54;100280.03;;;24.06;100.00
79645;BME280;69117;47.148;18.954;2023-07-29T06:44:55;100275.69;;;23.93;100.00
79645;BME280;69117;47.148;18.954;2023-07-29T06:47:57;100267.56;;;24.05;100.00
79645;BME280;69117;47.148;18.954;2023-07-29T06:50:59;100271.31;;;24.39;100.00
79645;BME280;69117;47.148;18.954;2023-07-29T06:54:02;100271.16;;;24.70;100.00
79645;BME280;69117;47.148;18.954;2023-07-29T06:57:05;100272.31;;;24.74;100.00
79645;BME280;69117;47.148;18.954;2023-07-29T07:00:07;100265.13;;;24.79;100.00
79645;BME280;69117;47.148;18.954;2023-07-29T07:03:10;100270.88;;;25.11;100.00
79645;BME280;69117;47.148;18.954;2023-07-29T07:06:12;100268.66;;;25.08;100.00
79645;BME280;69117;47.148;18.954;2023-07-29T07:09:14;100272.66;;;25.18;100.00
79645;BME280;69117;47.148;18.954;2023-07-29T07:12:15;100273.31;;;25.42;100.00
79645;BME280;69117;47.148;18.954;2023-07-29T07:15:17;100270.22;;;25.33;100.00
79645;BME280;69117;47.148;18.954;2023-07-29T07:18:19;100264.72;;;26.34;100.00
79645;BME280;69117;47.148;18.954;2023-07-29T07:21:23;100270.31;;;26.66;100.00
79645;BME280;69117;47.148;18.954;2023-07-29T07:24:25;100275.38;;;26.58;100.00
79645;BME280;69117;47.148;18.954;2023-07-29T07:27:26;100260.19;;;26.57;100.00
79645;BME280;69117;47.148;18.954;2023-07-29T07:30:28;100263.50;;;26.42;100.00
79645;BME280;69117;47.148;18.954;2023-07-29T07:33:30;100267.81;;;26.21;100.00
79645;BME280;69117;47.148;18.954;2023-07-29T07:36:31;100259.66;;;25.82;97.98
79645;BME280;69117;47.148;18.954;2023-07-29T07:39:33;100261.94;;;25.56;100.00
79645;BME280;69117;47.148;18.954;2023-07-29T07:42:35;100261.44;;;25.43;100.00
79645;BME280;69117;47.148;18.954;2023-07-29T07:45:36;100263.06;;;25.27;99.78
79645;BME280;69117;47.148;18.954;2023-07-29T07:48:38;100266.81;;;25.26;100.00
79645;BME280;69117;47.148;18.954;2023-07-29T07:51:40;100272.63;;;25.63;100.00
79645;BME280;69117;47.148;18.954;2023-07-29T07:54:41;100263.66;;;26.35;100.00
79645;BME280;69117;47.148;18.954;2023-07-29T07:57:48;100266.59;;;25.78;100.00
79645;BME280;69117;47.148;18.954;2023-07-29T08:00:49;100268.06;;;25.35;100.00
79645;BME280;69117;47.148;18.954;2023-07-29T08:03:51;100265.59;;;25.05;100.00
79645;BME280;69117;47.148;18.954;2023-07-29T08:06:53;100267.13;;;25.92;100.00
79645;BME280;69117;47.148;18.954;2023-07-29T08:09:54;100264.13;;;26.71;97.09
79645;BME280;69117;47.148;18.954;2023-07-29T08:12:56;100255.81;;;26.56;95.23
79645;BME280;69117;47.148;18.954;2023-07-29T08:15:57;100256.81;;;26.49;95.42
79645;BME280;69117;47.148;18.954;2023-07-29T08:18:59;100248.03;;;26.86;92.11
79645;BME280;69117;47.148;18.954;2023-07-29T08:22:02;100244.13;;;26.99;83.39
79645;BME280;69117;47.148;18.954;2023-07-29T08:25:05;100242.97;;;27.49;83.94
79645;BME280;69117;47.148;18.954;2023-07-29T08:28:07;100244.63;;;27.88;79.81
79645;BME280;69117;47.148;18.954;2023-07-29T08:31:09;100247.53;;;28.18;76.77
79645;BME280;69117;47.148;18.954;2023-07-29T08:34:10;100240.88;;;27.99;73.00
79645;BME280;69117;47.148;18.954;2023-07-29T08:37:12;100239.53;;;27.96;73.42
79645;BME280;69117;47.148;18.954;2023-07-29T08:40:14;100237.25;;;27.83;73.05
79645;BME280;69117;47.148;18.954;2023-07-29T08:43:19;100236.56;;;28.50;77.68
79645;BME280;69117;47.148;18.954;2023-07-29T08:46:21;100230.00;;;28.46;73.80
79645;BME280;69117;47.148;18.954;2023-07-29T08:49:23;100236.69;;;28.28;72.27
79645;BME280;69117;47.148;18.954;2023-07-29T08:52:26;100240.97;;;28.67;74.15
79645;BME280;69117;47.148;18.954;2023-07-29T08:55:29;100234.25;;;29.10;74.66
79645;BME280;69117;47.148;18.954;2023-07-29T08:58:32;100234.81;;;29.07;69.18
79645;BME280;69117;47.148;18.954;2023-07-29T09:01:34;100224.78;;;29.23;71.03
79645;BME280;69117;47.148;18.954;2023-07-29T09:04:36;100224.50;;;29.76;71.60
79645;BME280;69117;47.148;18.954;2023-07-29T09:07:38;100222.78;;;28.88;63.84
79645;BME280;69117;47.148;18.954;2023-07-29T09:10:42;100219.03;;;29.60;63.18
79645;BME280;69117;47.148;18.954;2023-07-29T09:13:43;100218.50;;;29.63;60.22
79645;BME280;69117;47.148;18.954;2023-07-29T09:16:45;100211.94;;;29.85;62.26
79645;BME280;69117;47.148;18.954;2023-07-29T09:19:48;100206.41;;;30.21;57.88
79645;BME280;69117;47.148;18.954;2023-07-29T09:22:50;100200.34;;;30.34;58.66
79645;BME280;69117;47.148;18.954;2023-07-29T09:26:00;100188.31;;;30.45;51.80
79645;BME280;69117;47.148;18.954;2023-07-29T09:29:02;100194.00;;;29.69;53.82
79645;BME280;69117;47.148;18.954;2023-07-29T09:32:24;100189.50;;;30.24;51.98
79645;BME280;69117;47.148;18.954;2023-07-29T09:35:31;100181.16;;;30.99;55.79
79645;BME280;69117;47.148;18.954;2023-07-29T09:38:34;100181.81;;;30.36;54.20
79645;BME280;69117;47.148;18.954;2023-07-29T09:41:37;100195.41;;;30.91;50.78
79645;BME280;69117;47.148;18.954;2023-07-29T09:44:38;100180.28;;;31.09;50.17
79645;BME280;69117;47.148;18.954;2023-07-29T09:47:40;100180.19;;;31.19;48.19
79645;BME280;69117;47.148;18.954;2023-07-29T09:50:44;100179.88;;;31.55;45.58
79645;BME280;69117;47.148;18.954;2023-07-29T09:53:47;100184.03;;;30.73;45.67
79645;BME280;69117;47.148;18.954;2023-07-29T09:56:48;100186.19;;;30.32;45.80
79645;BME280;69117;47.148;18.954;2023-07-29T09:59:54;100168.94;;;30.91;45.08
79645;BME280;69117;47.148;18.954;2023-07-29T10:02:57;100165.47;;;31.15;44.28
79645;BME280;69117;47.148;18.954;2023-07-29T10:06:03;100168.28;;;32.16;44.40
79645;BME280;69117;47.148;18.954;2023-07-29T10:09:05;100163.66;;;31.39;41.46
79645;BME280;69117;47.148;18.954;2023-07-29T10:12:09;100163.84;;;31.48;42.27
79645;BME280;69117;47.148;18.954;2023-07-29T10:15:11;100155.25;;;31.60;41.19
79645;BME280;69117;47.148;18.954;2023-07-29T10:18:13;100161.03;;;32.06;43.80
79645;BME280;69117;47.148;18.954;2023-07-29T10:21:16;100153.13;;;33.18;41.51
79645;BME280;69117;47.148;18.954;2023-07-29T10:24:19;100160.31;;;33.47;41.45
79645;BME280;69117;47.148;18.954;2023-07-29T10:27:24;100156.81;;;32.76;36.57
79645;BME280;69117;47.148;18.954;2023-07-29T10:30:28;100156.75;;;32.19;42.76
79645;BME280;69117;47.148;18.954;2023-07-29T10:33:31;100158.34;;;32.01;40.04
79645;BME280;69117;47.148;18.954;2023-07-29T10:36:35;100152.00;;;32.49;37.89
79645;BME280;69117;47.148;18.954;2023-07-29T10:39:52;100143.09;;;32.95;37.38
79645;BME280;69117;47.148;18.954;2023-07-29T10:46:46;100144.97;;;32.99;38.81
79645;BME280;69117;47.148;18.954;2023-07-29T10:49:54;100143.09;;;33.88;39.28
79645;BME280;69117;47.148;18.954;2023-07-29T10:52:56;100146.75;;;33.83;36.55
79645;BME280;69117;47.148;18.954;2023-07-29T10:55:58;100141.31;;;33.04;38.22
79645;BME280;69117;47.148;18.954;2023-07-29T11:02:17;100133.50;;;32.78;39.11
79645;BME280;69117;47.148;18.954;2023-07-29T11:05:20;100132.53;;;33.67;38.96
79645;BME280;69117;47.148;18.954;2023-07-29T11:08:27;100145.22;;;34.18;36.51
79645;BME280;69117;47.148;18.954;2023-07-29T11:11:29;100137.84;;;34.78;39.87
79645;BME280;69117;47.148;18.954;2023-07-29T11:14:31;100143.88;;;34.16;36.58
79645;BME280;69117;47.148;18.954;2023-07-29T11:17:33;100142.97;;;34.20;37.69
79645;BME280;69117;47.148;18.954;2023-07-29T11:20:37;100137.78;;;34.69;37.23
79645;BME280;69117;47.148;18.954;2023-07-29T11:23:39;100142.81;;;34.39;34.18
79645;BME280;69117;47.148;18.954;2023-07-29T11:26:46;100149.03;;;34.59;35.73
79645;BME280;69117;47.148;18.954;2023-07-29T11:29:48;100140.66;;;35.09;36.90
79645;BME280;69117;47.148;18.954;2023-07-29T11:32:50;100139.50;;;35.64;35.97
79645;BME280;69117;47.148;18.954;2023-07-29T11:35:52;100136.53;;;34.39;36.92
79645;BME280;69117;47.148;18.954;2023-07-29T11:38:54;100135.97;;;35.32;33.06
79645;BME280;69117;47.148;18.954;2023-07-29T11:41:56;100138.41;;;36.31;35.43
79645;BME280;69117;47.148;18.954;2023-07-29T11:44:58;100130.47;;;35.32;34.61
79645;BME280;69117;47.148;18.954;2023-07-29T11:48:03;100126.66;;;35.90;34.72
79645;BME280;69117;47.148;18.954;2023-07-29T11:51:05;100132.25;;;34.47;37.00
79645;BME280;69117;47.148;18.954;2023-07-29T11:54:07;100123.41;;;34.50;37.77
79645;BME280;69117;47.148;18.954;2023-07-29T11:57:10;100120.00;;;35.91;35.17
79645;BME280;69117;47.148;18.954;2023-07-29T12:00:12;100110.56;;;36.76;34.76
79645;BME280;69117;47.148;18.954;2023-07-29T12:03:14;100119.25;;;37.12;33.54
79645;BME280;69117;47.148;18.954;2023-07-29T12:06:18;100103.28;;;36.36;30.59
79645;BME280;69117;47.148;18.954;2023-07-29T12:09:20;100100.69;;;36.57;30.69
79645;BME280;69117;47.148;18.954;2023-07-29T12:12:22;100104.31;;;35.43;34.22
79645;BME280;69117;47.148;18.954;2023-07-29T12:15:25;100108.06;;;33.98;35.31
79645;BME280;69117;47.148;18.954;2023-07-29T12:18:31;100110.41;;;33.64;36.87
79645;BME280;69117;47.148;18.954;2023-07-29T12:21:33;100097.03;;;33.16;38.19
79645;BME280;69117;47.148;18.954;2023-07-29T12:24:39;100101.38;;;33.63;38.54
79645;BME280;69117;47.148;18.954;2023-07-29T12:27:43;100086.81;;;35.79;31.63
79645;BME280;69117;47.148;18.954;2023-07-29T12:30:46;100093.34;;;34.67;37.24
79645;BME280;69117;47.148;18.954;2023-07-29T12:33:47;100090.50;;;34.36;35.79
79645;BME280;69117;47.148;18.954;2023-07-29T12:36:50;100092.00;;;34.19;36.18
79645;BME280;69117;47.148;18.954;2023-07-29T12:39:52;100088.00;;;35.16;36.45
79645;BME280;69117;47.148;18.954;2023-07-29T12:42:54;100081.59;;;36.26;33.88
79645;BME280;69117;47.148;18.954;2023-07-29T12:45:57;100085.44;;;36.42;31.26
79645;BME280;69117;47.148;18.954;2023-07-29T12:48:59;100074.97;;;36.53;33.84
79645;BME280;69117;47.148;18.954;2023-07-29T12:52:00;100078.88;;;35.69;34.75
79645;BME280;69117;47.148;18.954;2023-07-29T12:55:02;100063.78;;;36.32;30.68
79645;BME280;69117;47.148;18.954;2023-07-29T12:58:04;100082.50;;;36.82;33.60
79645;BME280;69117;47.148;18.954;2023-07-29T13:01:06;100071.28;;;37.52;29.99
79645;BME280;69117;47.148;18.954;2023-07-29T13:04:12;100059.84;;;35.41;29.89
79645;BME280;69117;47.148;18.954;2023-07-29T13:07:13;100075.25;;;33.38;38.14
79645;BME280;69117;47.148;18.954;2023-07-29T13:10:15;100072.66;;;32.49;39.04
79645;BME280;69117;47.148;18.954;2023-07-29T13:13:17;100069.63;;;32.69;37.72
79645;BME280;69117;47.148;18.954;2023-07-29T13:16:19;100065.22;;;34.61;34.83
79645;BME280;69117;47.148;18.954;2023-07-29T13:19:21;100062.59;;;34.79;31.77
79645;BME280;69117;47.148;18.954;2023-07-29T13:22:22;100062.22;;;35.65;32.36
79645;BME280;69117;47.148;18.954;2023-07-29T13:25:24;100066.91;;;33.98;35.67
79645;BME280;69117;47.148;18.954;2023-07-29T13:28:26;100058.09;;;32.86;35.85
79645;BME280;69117;47.148;18.954;2023-07-29T13:31:27;100052.97;;;34.23;34.66
79645;BME280;69117;47.148;18.954;2023-07-29T13:34:29;100036.41;;;36.10;31.84
79645;BME280;69117;47.148;18.954;2023-07-29T13:37:33;100035.88;;;36.77;30.68
79645;BME280;69117;47.148;18.954;2023-07-29T13:40:35;100034.44;;;37.86;30.05
79645;BME280;69117;47.148;18.954;2023-07-29T13:43:38;100029.44;;;36.38;31.56
79645;BME280;69117;47.148;18.954;2023-07-29T13:46:40;100024.41;;;37.52;28.43
79645;BME280;69117;47.148;18.954;2023-07-29T13:49:42;100029.81;;;37.99;29.38
79645;BME280;69117;47.148;18.954;2023-07-29T13:52:44;100018.88;;;37.81;29.89
79645;BME280;69117;47.148;18.954;2023-07-29T13:55:45;100022.31;;;38.41;28.22
79645;BME280;69117;47.148;18.954;2023-07-29T13:58:47;100017.66;;;37.91;28.27
79645;BME280;69117;47.148;18.954;2023-07-29T14:01:49;100009.09;;;37.93;28.40
79645;BME280;69117;47.148;18.954;2023-07-29T14:04:50;100012.56;;;38.23;26.56
79645;BME280;69117;47.148;18.954;2023-07-29T14:07:52;100013.09;;;36.98;30.15
79645;BME280;69117;47.148;18.954;2023-07-29T14:10:53;100001.91;;;36.38;30.19
79645;BME280;69117;47.148;18.954;2023-07-29T14:13:55;99994.63;;;36.51;30.61
79645;BME280;69117;47.148;18.954;2023-07-29T14:16:57;99992.09;;;34.65;35.84
79645;BME280;69117;47.148;18.954;2023-07-29T14:19:59;99984.91;;;35.67;33.38
79645;BME280;69117;47.148;18.954;2023-07-29T14:23:00;99982.66;;;36.56;30.17
79645;BME280;69117;47.148;18.954;2023-07-29T14:26:02;99984.97;;;38.02;29.13
79645;BME280;69117;47.148;18.954;2023-07-29T14:29:03;99980.19;;;37.40;27.91
79645;BME280;69117;47.148;18.954;2023-07-29T14:32:05;99986.19;;;37.92;27.73
79645;BME280;69117;47.148;18.954;2023-07-29T14:35:07;99976.91;;;36.78;32.47
79645;BME280;69117;47.148;18.954;2023-07-29T14:38:09;99979.09;;;36.94;30.79
79645;BME280;69117;47.148;18.954;2023-07-29T14:41:11;99982.81;;;37.36;30.81
79645;BME280;69117;47.148;18.954;2023-07-29T14:44:13;99976.84;;;36.96;30.56
79645;BME280;69117;47.148;18.954;2023-07-29T14:47:14;99988.97;;;35.78;33.79
79645;BME280;69117;47.148;18.954;2023-07-29T14:50:16;99983.19;;;35.22;33.60
79645;BME280;69117;47.148;18.954;2023-07-29T14:53:18;99980.75;;;34.58;36.42
79645;BME280;69117;47.148;18.954;2023-07-29T14:56:20;99976.09;;;34.59;35.18
79645;BME280;69117;47.148;18.954;2023-07-29T14:59:24;99971.28;;;35.53;34.74
79645;BME280;69117;47.148;18.954;2023-07-29T15:02:26;99971.63;;;36.47;33.84
79645;BME280;69117;47.148;18.954;2023-07-29T15:05:28;99963.06;;;36.96;32.21
79645;BME280;69117;47.148;18.954;2023-07-29T15:08:29;99967.66;;;37.51;31.24
79645;BME280;69117;47.148;18.954;2023-07-29T15:11:31;99970.56;;;37.46;32.26
79645;BME280;69117;47.148;18.954;2023-07-29T15:14:36;99962.88;;;37.01;30.43
79645;BME280;69117;47.148;18.954;2023-07-29T15:17:38;99962.34;;;37.16;30.89
79645;BME280;69117;47.148;18.954;2023-07-29T15:20:40;99972.84;;;37.52;32.49
79645;BME280;69117;47.148;18.954;2023-07-29T15:23:41;99955.75;;;37.00;32.16
79645;BME280;69117;47.148;18.954;2023-07-29T15:26:43;99960.31;;;36.96;34.51
79645;BME280;69117;47.148;18.954;2023-07-29T15:29:45;99962.97;;;37.93;31.11
79645;BME280;69117;47.148;18.954;2023-07-29T15:32:47;99965.03;;;38.17;30.04
79645;BME280;69117;47.148;18.954;2023-07-29T15:35:48;99965.78;;;37.85;31.26
79645;BME280;69117;47.148;18.954;2023-07-29T15:38:50;99955.31;;;36.16;33.84
79645;BME280;69117;47.148;18.954;2023-07-29T15:41:52;99958.44;;;34.29;36.35
79645;BME280;69117;47.148;18.954;2023-07-29T15:44:54;99979.72;;;33.87;37.68
79645;BME280;69117;47.148;18.954;2023-07-29T15:47:57;99976.31;;;33.40;40.51
79645;BME280;69117;47.148;18.954;2023-07-29T15:50:59;99973.22;;;32.72;41.07
79645;BME280;69117;47.148;18.954;2023-07-29T15:54:01;99978.56;;;31.74;42.90